createdAt,value
2022-08-19T00:01:37.811Z,1.58
2022-08-19T00:04:08.087Z,1.70
2022-08-19T00:06:36.529Z,2.05
2022-08-19T00:09:05.649Z,1.60
2022-08-19T00:11:32.816Z,1.83
2022-08-19T00:13:59.923Z,1.90
2022-08-19T00:16:28.079Z,2.83
2022-08-19T00:18:56.528Z,2.40
2022-08-19T00:21:27.681Z,2.83
2022-08-19T00:24:02.128Z,3.92
2022-08-19T00:26:29.453Z,3.08
2022-08-19T00:28:56.427Z,2.45
2022-08-19T00:31:23.512Z,2.40
2022-08-19T00:33:51.507Z,2.08
2022-08-19T00:36:18.775Z,2.00
2022-08-19T00:38:45.823Z,1.90
2022-08-19T00:41:22.212Z,1.67
2022-08-19T00:44:02.525Z,1.50
2022-08-19T00:46:30.289Z,2.20
2022-08-19T00:48:58.719Z,2.72
2022-08-19T00:51:28.406Z,2.97
2022-08-19T00:53:57.861Z,3.00
2022-08-19T00:56:25.130Z,2.40
2022-08-19T00:58:52.083Z,2.28
2022-08-19T01:01:19.068Z,2.55
2022-08-19T01:03:57.660Z,2.08
2022-08-19T01:06:27.256Z,2.50
2022-08-19T01:08:55.956Z,2.45
2022-08-19T01:11:22.991Z,2.60
2022-08-19T01:13:50.766Z,2.67
2022-08-19T01:16:20.303Z,3.00
2022-08-19T01:18:47.634Z,2.70
2022-08-19T01:21:30.007Z,2.97
2022-08-19T01:23:57.063Z,3.35
2022-08-19T01:26:25.951Z,3.13
2022-08-19T01:28:59.471Z,2.35
2022-08-19T01:31:32.809Z,3.28
2022-08-19T01:34:01.126Z,2.20
2022-08-19T01:36:33.785Z,2.33
2022-08-19T01:39:03.798Z,2.00
2022-08-19T01:41:30.720Z,2.28
2022-08-19T01:44:03.238Z,2.53
2022-08-19T01:46:45.411Z,2.25
2022-08-19T01:49:12.548Z,2.47
2022-08-19T01:51:40.561Z,2.47
2022-08-19T01:54:09.668Z,2.65
2022-08-19T01:56:37.048Z,2.25
2022-08-19T01:59:11.326Z,2.65
2022-08-19T02:01:38.296Z,2.63
2022-08-19T02:04:06.737Z,3.35
2022-08-19T02:06:34.185Z,2.50
2022-08-19T02:09:01.909Z,2.70
2022-08-19T02:11:32.687Z,2.67
2022-08-19T02:14:01.093Z,3.20
2022-08-19T02:16:28.062Z,3.63
2022-08-19T02:18:55.668Z,2.70
2022-08-19T02:21:24.446Z,2.92
2022-08-19T02:23:51.888Z,2.83
2022-08-19T02:26:20.205Z,3.42
2022-08-19T02:28:47.213Z,3.13
2022-08-19T02:31:18.091Z,3.33
2022-08-19T02:33:45.843Z,3.25
2022-08-19T02:36:14.357Z,2.90
2022-08-19T02:38:47.170Z,3.30
2022-08-19T02:41:26.778Z,2.70
2022-08-19T02:44:22.333Z,2.50
2022-08-19T02:46:42.177Z,2.88
2022-08-19T02:49:09.350Z,2.50
2022-08-19T02:51:39.982Z,2.78
2022-08-19T02:54:08.869Z,2.80
2022-08-19T02:56:37.694Z,2.67
2022-08-19T02:59:09.233Z,2.65
2022-08-19T03:01:40.712Z,2.40
2022-08-19T03:04:09.079Z,2.53
2022-08-19T03:06:41.759Z,2.63
2022-08-19T03:09:09.114Z,2.17
2022-08-19T03:11:36.325Z,2.42
2022-08-19T03:14:05.381Z,2.35
2022-08-19T03:16:49.290Z,2.65
2022-08-19T03:19:18.652Z,2.13
2022-08-19T03:21:45.781Z,2.80
2022-08-19T03:24:14.043Z,2.63
2022-08-19T03:26:44.007Z,2.30
2022-08-19T03:29:13.221Z,2.55
2022-08-19T03:31:51.202Z,2.33
2022-08-19T03:34:29.902Z,2.95
2022-08-19T03:36:58.955Z,2.50
2022-08-19T03:39:27.272Z,2.20
2022-08-19T03:42:33.111Z,2.50
2022-08-19T03:44:46.000Z,2.33
2022-08-19T03:47:17.140Z,2.58
2022-08-19T03:49:44.197Z,1.92
2022-08-19T03:52:11.254Z,2.85
2022-08-19T03:54:39.250Z,2.25
2022-08-19T03:57:07.098Z,2.53
2022-08-19T03:59:36.298Z,2.40
2022-08-19T04:02:09.415Z,2.58
2022-08-19T04:04:38.465Z,2.75
2022-08-19T04:07:05.586Z,3.40
2022-08-19T04:09:34.164Z,2.50
2022-08-19T04:12:01.103Z,2.65
2022-08-19T04:14:33.158Z,2.67
2022-08-19T04:17:01.577Z,2.50
2022-08-19T04:19:31.336Z,3.10
2022-08-19T04:21:59.404Z,2.92
2022-08-19T04:24:26.705Z,2.42
2022-08-19T04:26:54.102Z,2.85
2022-08-19T04:29:27.833Z,2.60
2022-08-19T04:31:56.629Z,2.30
2022-08-19T04:34:25.813Z,2.88
2022-08-19T04:36:55.108Z,2.63
2022-08-19T04:39:51.289Z,2.72
2022-08-19T04:42:37.696Z,3.40
2022-08-19T04:45:15.174Z,2.90
2022-08-19T04:47:48.218Z,3.25
2022-08-19T04:50:27.230Z,3.22
2022-08-19T04:52:56.477Z,3.75
2022-08-19T04:55:26.422Z,2.90
2022-08-19T04:57:54.268Z,3.53
2022-08-19T05:00:21.235Z,3.78
2022-08-19T05:02:50.174Z,3.58
2022-08-19T05:05:17.304Z,3.92
2022-08-19T05:07:44.269Z,3.72
2022-08-19T05:10:11.516Z,3.20
2022-08-19T05:12:38.979Z,2.58
2022-08-19T05:15:08.039Z,2.70
2022-08-19T05:17:38.621Z,2.58
2022-08-19T05:20:26.653Z,2.50
2022-08-19T05:22:54.032Z,2.97
2022-08-19T05:25:22.790Z,3.08
2022-08-19T05:27:49.808Z,2.67
2022-08-19T05:30:17.885Z,2.92
2022-08-19T05:32:45.570Z,2.85
2022-08-19T05:35:13.123Z,3.08
2022-08-19T05:37:41.360Z,3.20
2022-08-19T05:40:09.893Z,2.42
2022-08-19T05:42:36.909Z,2.53
2022-08-19T05:45:05.372Z,2.58
2022-08-19T05:47:32.987Z,3.03
2022-08-19T05:50:00.044Z,3.10
2022-08-19T05:52:28.102Z,2.80
2022-08-19T05:54:56.588Z,2.80
2022-08-19T05:57:25.353Z,2.92
2022-08-19T05:59:58.182Z,3.28
2022-08-19T06:02:27.364Z,3.03
2022-08-19T06:04:54.450Z,2.40
2022-08-19T06:07:21.493Z,2.83
2022-08-19T06:09:59.079Z,3.55
2022-08-19T06:12:32.571Z,2.65
2022-08-19T06:15:02.089Z,3.05
2022-08-19T06:17:32.800Z,3.50
2022-08-19T06:20:00.415Z,3.38
2022-08-19T06:22:28.824Z,3.00
2022-08-19T06:24:56.437Z,3.30
2022-08-19T06:27:24.206Z,3.38
2022-08-19T06:29:51.283Z,3.75
2022-08-19T06:32:19.913Z,3.50
2022-08-19T06:34:47.505Z,3.10
2022-08-19T06:37:14.552Z,3.15
2022-08-19T06:39:44.944Z,2.97
2022-08-19T06:42:14.215Z,3.78
2022-08-19T06:44:48.276Z,4.82
2022-08-19T06:47:23.618Z,4.32
2022-08-19T06:50:02.954Z,3.88
2022-08-19T06:52:38.446Z,4.07
2022-08-19T06:55:06.942Z,4.35
2022-08-19T06:57:34.974Z,4.82
2022-08-19T07:00:02.415Z,4.32
2022-08-19T07:02:29.615Z,4.63
2022-08-19T07:04:59.168Z,4.05
2022-08-19T07:07:26.257Z,5.20
2022-08-19T07:09:59.018Z,4.32
2022-08-19T07:12:35.418Z,4.90
2022-08-19T07:15:05.389Z,4.45
2022-08-19T07:17:34.537Z,5.85
2022-08-19T07:20:05.547Z,5.65
2022-08-19T07:22:37.139Z,5.22
2022-08-19T07:25:05.079Z,6.03
2022-08-19T07:27:33.515Z,6.45
2022-08-19T07:30:01.032Z,5.88
2022-08-19T07:32:28.233Z,6.43
2022-08-19T07:34:57.044Z,6.00
2022-08-19T07:37:33.053Z,6.07
2022-08-19T07:40:02.156Z,5.85
2022-08-19T07:42:30.915Z,6.38
2022-08-19T07:44:59.402Z,6.90
2022-08-19T07:47:48.779Z,6.78
2022-08-19T07:50:14.322Z,6.45
2022-08-19T07:52:41.644Z,7.60
2022-08-19T07:55:41.708Z,6.50
2022-08-19T07:57:58.135Z,6.50
2022-08-19T08:00:25.328Z,7.30
2022-08-19T08:02:55.395Z,6.13
2022-08-19T08:05:53.034Z,5.78
2022-08-19T08:08:44.080Z,6.07
2022-08-19T08:13:44.770Z,6.18
2022-08-19T08:16:14.442Z,6.05
2022-08-19T08:18:43.325Z,5.70
2022-08-19T08:21:17.330Z,5.68
2022-08-19T08:23:44.315Z,5.60
2022-08-19T08:26:11.944Z,5.20
2022-08-19T08:28:39.896Z,4.55
2022-08-19T08:31:09.636Z,4.45
2022-08-19T08:33:36.777Z,3.90
2022-08-19T08:36:07.345Z,3.95
2022-08-19T08:38:39.810Z,4.78
2022-08-19T08:41:28.834Z,4.05
2022-08-19T08:43:58.210Z,4.25
2022-08-19T08:46:46.826Z,4.22
2022-08-19T08:49:21.456Z,5.20
2022-08-19T08:52:00.033Z,4.53
2022-08-19T08:54:55.328Z,3.67
2022-08-19T08:57:54.588Z,4.53
2022-08-19T09:00:35.601Z,5.35
2022-08-19T09:03:04.508Z,5.78
2022-08-19T09:05:53.446Z,6.65
2022-08-19T09:08:44.322Z,7.80
2022-08-19T09:11:43.067Z,9.45
2022-08-19T09:14:52.868Z,9.88
2022-08-19T09:17:32.016Z,8.25
2022-08-19T09:20:09.099Z,8.43
2022-08-19T09:22:38.118Z,7.43
2022-08-19T09:25:08.159Z,6.65
2022-08-19T09:27:43.157Z,7.10
2022-08-19T09:30:24.835Z,6.05
2022-08-19T09:32:53.876Z,5.68
2022-08-19T09:35:23.746Z,5.25
2022-08-19T09:37:57.372Z,5.15
2022-08-19T09:40:26.679Z,4.10
2022-08-19T09:42:54.050Z,5.53
2022-08-19T09:45:23.050Z,5.78
2022-08-19T09:47:53.935Z,5.68
2022-08-19T09:50:23.965Z,4.57
2022-08-19T09:52:55.417Z,5.13
2022-08-19T09:55:32.070Z,4.40
2022-08-19T09:58:02.150Z,4.03
2022-08-19T10:00:29.712Z,3.40
2022-08-19T10:02:56.747Z,2.80
2022-08-19T10:05:42.683Z,2.53
2022-08-19T10:08:13.324Z,2.85
2022-08-19T10:10:47.219Z,2.40
2022-08-19T10:13:17.285Z,2.38
2022-08-19T10:15:47.308Z,2.20
2022-08-19T10:18:15.686Z,2.50
2022-08-19T10:20:43.325Z,2.20
2022-08-19T10:23:10.603Z,2.20
2022-08-19T10:25:38.585Z,2.13
2022-08-19T10:28:10.805Z,2.17
2022-08-19T10:30:38.527Z,2.13
2022-08-19T10:33:10.927Z,1.90
2022-08-19T10:35:42.717Z,2.15
2022-08-19T10:38:31.438Z,2.17
2022-08-19T10:41:07.633Z,2.00
2022-08-19T10:43:37.879Z,1.90
2022-08-19T10:46:06.605Z,2.40
2022-08-19T10:48:42.995Z,2.20
2022-08-19T10:51:29.776Z,2.10
2022-08-19T10:53:57.657Z,2.28
2022-08-19T10:56:43.209Z,2.20
2022-08-19T10:59:10.742Z,3.75
2022-08-19T11:01:37.720Z,2.70
2022-08-19T11:04:05.841Z,3.10
2022-08-19T11:06:33.492Z,2.75
2022-08-19T11:09:01.003Z,4.03
2022-08-19T11:11:29.427Z,4.88
2022-08-19T11:13:57.508Z,3.40
2022-08-19T11:16:30.589Z,4.82
2022-08-19T11:18:59.620Z,3.63
2022-08-19T11:21:32.916Z,5.18
2022-08-19T11:24:03.272Z,3.67
2022-08-19T11:26:31.732Z,3.85
2022-08-19T11:29:00.140Z,4.03
2022-08-19T11:31:31.721Z,4.13
2022-08-19T11:34:00.827Z,4.00
2022-08-19T11:36:28.485Z,4.10
2022-08-19T11:38:56.017Z,3.90
2022-08-19T11:41:25.141Z,4.03
2022-08-19T11:43:55.123Z,4.63
2022-08-19T11:46:23.732Z,4.65
2022-08-19T11:48:51.583Z,4.22
2022-08-19T11:51:22.469Z,4.25
2022-08-19T11:53:51.309Z,4.45
2022-08-19T11:56:19.969Z,4.70
2022-08-19T11:58:47.387Z,4.80
2022-08-19T12:01:17.375Z,4.07
2022-08-19T12:03:46.721Z,4.53
2022-08-19T12:06:29.390Z,5.05
2022-08-19T12:08:58.060Z,3.80
2022-08-19T12:11:25.088Z,4.68
2022-08-19T12:13:52.531Z,4.60
2022-08-19T12:16:22.279Z,4.72
2022-08-19T12:18:49.531Z,4.57
2022-08-19T12:21:22.095Z,4.47
2022-08-19T12:23:55.518Z,4.53
2022-08-19T12:26:23.587Z,4.25
2022-08-19T12:28:51.092Z,3.83
2022-08-19T12:31:18.933Z,4.25
2022-08-19T12:33:45.852Z,4.38
2022-08-19T12:36:15.161Z,3.83
2022-08-19T12:38:42.593Z,4.28
2022-08-19T12:41:13.468Z,4.25
2022-08-19T12:43:40.587Z,4.03
2022-08-19T12:46:07.733Z,4.57
2022-08-19T12:48:38.434Z,3.85
2022-08-19T12:51:10.301Z,3.92
2022-08-19T12:53:39.234Z,4.10
2022-08-19T12:56:08.968Z,4.18
2022-08-19T12:58:39.989Z,4.45
2022-08-19T13:01:15.508Z,4.28
2022-08-19T13:03:46.975Z,4.03
2022-08-19T13:06:14.753Z,4.13
2022-08-19T13:08:46.535Z,3.75
2022-08-19T13:11:15.917Z,3.05
2022-08-19T13:13:44.832Z,3.10
2022-08-19T13:16:12.841Z,2.95
2022-08-19T13:18:41.197Z,3.20
2022-08-19T13:21:13.518Z,2.80
2022-08-19T13:23:42.005Z,3.10
2022-08-19T13:26:11.157Z,3.08
2022-08-19T13:28:57.304Z,2.92
2022-08-19T13:31:44.372Z,2.88
2022-08-19T13:34:11.708Z,2.83
2022-08-19T13:36:39.588Z,2.65
2022-08-19T13:39:08.594Z,2.17
2022-08-19T13:41:37.112Z,2.28
2022-08-19T13:44:05.398Z,2.63
2022-08-19T13:46:32.467Z,2.35
2022-08-19T13:48:59.432Z,2.05
2022-08-19T13:51:26.343Z,2.42
2022-08-19T13:53:53.210Z,2.30
2022-08-19T13:56:25.411Z,1.90
2022-08-19T13:58:54.374Z,2.10
2022-08-19T14:01:25.288Z,2.05
2022-08-19T14:03:52.427Z,2.55
2022-08-19T14:06:19.891Z,2.17
2022-08-19T14:08:47.565Z,1.80
2022-08-19T14:11:15.027Z,2.35
2022-08-19T14:13:42.289Z,2.10
2022-08-19T14:16:14.561Z,2.05
2022-08-19T14:18:42.464Z,1.83
2022-08-19T14:21:16.383Z,2.15
2022-08-19T14:23:43.319Z,2.20
2022-08-19T14:26:14.586Z,1.73
2022-08-19T14:28:42.950Z,2.20
2022-08-19T14:31:12.344Z,2.40
2022-08-19T14:33:39.504Z,2.25
2022-08-19T14:36:06.575Z,2.50
2022-08-19T14:38:33.794Z,2.33
2022-08-19T14:41:14.774Z,2.05
2022-08-19T14:43:42.550Z,2.30
2022-08-19T14:46:11.291Z,2.10
2022-08-19T14:48:41.510Z,2.40
2022-08-19T14:51:09.452Z,1.90
2022-08-19T14:53:37.049Z,2.13
2022-08-19T14:56:14.188Z,2.10
2022-08-19T14:58:43.084Z,2.10
2022-08-19T15:01:11.266Z,1.80
2022-08-19T15:03:38.988Z,2.13
2022-08-19T15:06:06.879Z,2.00
2022-08-19T15:08:37.647Z,2.20
2022-08-19T15:11:10.695Z,2.08
2022-08-19T15:13:37.920Z,2.22
2022-08-19T15:16:05.328Z,2.00
2022-08-19T15:18:33.548Z,1.90
2022-08-19T15:21:00.463Z,1.95
2022-08-19T15:23:27.388Z,1.95
2022-08-19T15:25:55.730Z,2.20
2022-08-19T15:28:25.328Z,2.03
2022-08-19T15:30:52.986Z,2.42
2022-08-19T15:33:21.225Z,2.30
2022-08-19T15:35:50.902Z,2.53
2022-08-19T15:38:22.127Z,2.40
2022-08-19T15:40:50.423Z,2.10
2022-08-19T15:43:18.934Z,2.42
2022-08-19T15:45:49.307Z,2.17
2022-08-19T15:48:16.614Z,2.20
2022-08-19T15:50:43.642Z,2.15
2022-08-19T15:53:11.770Z,2.25
2022-08-19T15:55:44.049Z,2.42
2022-08-19T15:58:33.115Z,1.70
2022-08-19T16:01:26.986Z,2.10
2022-08-19T16:04:15.617Z,2.20
2022-08-19T16:06:47.091Z,2.22
2022-08-19T16:09:15.649Z,2.35
2022-08-19T16:11:45.806Z,2.38
2022-08-19T16:14:15.649Z,2.17
2022-08-19T16:16:46.652Z,2.05
2022-08-19T16:19:16.879Z,2.13
2022-08-19T16:21:49.697Z,2.20
2022-08-19T16:24:23.518Z,2.50
2022-08-19T16:26:50.712Z,2.25
2022-08-19T16:29:34.074Z,2.50
2022-08-19T16:32:09.949Z,2.22
2022-08-19T16:34:38.280Z,2.40
2022-08-19T16:37:05.365Z,2.47
2022-08-19T16:39:32.453Z,2.22
2022-08-19T16:41:59.935Z,2.50
2022-08-19T16:44:29.516Z,2.58
2022-08-19T16:47:00.384Z,2.67
2022-08-19T16:49:54.165Z,2.80
2022-08-19T16:52:17.505Z,2.72
2022-08-19T16:54:44.786Z,3.75
2022-08-19T16:57:12.574Z,2.83
2022-08-19T16:59:48.986Z,3.80
2022-08-19T17:02:22.467Z,2.45
2022-08-19T17:04:57.234Z,2.67
2022-08-19T17:07:27.718Z,2.25
2022-08-19T17:09:55.332Z,2.40
2022-08-19T17:12:30.734Z,2.47
2022-08-19T17:15:00.933Z,2.63
2022-08-19T17:17:29.274Z,2.30
2022-08-19T17:19:58.634Z,2.25
2022-08-19T17:22:25.722Z,2.50
2022-08-19T17:24:52.833Z,2.63
2022-08-19T17:27:23.676Z,2.15
2022-08-19T17:29:50.658Z,2.08
2022-08-19T17:32:17.604Z,2.83
2022-08-19T17:37:19.180Z,2.05
2022-08-19T17:39:46.225Z,2.40
2022-08-19T17:42:13.281Z,2.90
2022-08-19T17:44:40.895Z,2.50
2022-08-19T17:47:07.813Z,2.70
2022-08-19T17:49:34.793Z,2.75
2022-08-19T17:52:01.774Z,2.90
2022-08-19T17:54:33.218Z,3.03
2022-08-19T17:57:01.403Z,2.60
2022-08-19T17:59:30.238Z,2.75
2022-08-19T18:01:57.991Z,2.78
2022-08-19T18:04:26.097Z,2.45
2022-08-19T18:06:55.416Z,2.53
2022-08-19T18:09:41.890Z,2.75
2022-08-19T18:12:14.026Z,2.53
2022-08-19T18:14:42.157Z,2.30
2022-08-19T18:17:12.454Z,2.90
2022-08-19T18:19:43.072Z,2.60
2022-08-19T18:22:22.545Z,3.15
2022-08-19T18:24:49.756Z,2.72
2022-08-19T18:27:16.919Z,2.65
2022-08-19T18:29:44.784Z,2.70
2022-08-19T18:32:12.898Z,2.83
2022-08-19T18:34:44.354Z,2.90
2022-08-19T18:37:11.820Z,2.97
2022-08-19T18:39:57.762Z,2.30
2022-08-19T18:42:43.660Z,2.25
2022-08-19T18:45:30.152Z,2.50
2022-08-19T18:48:26.987Z,2.50
2022-08-19T18:50:59.714Z,2.95
2022-08-19T18:53:29.365Z,2.60
2022-08-19T18:55:56.654Z,2.80
2022-08-19T18:58:26.560Z,3.53
2022-08-19T19:00:56.871Z,2.20
2022-08-19T19:03:25.472Z,2.53
2022-08-19T19:05:52.884Z,2.10
2022-08-19T19:08:20.536Z,2.60
2022-08-19T19:10:53.920Z,2.83
2022-08-19T19:13:20.834Z,2.60
2022-08-19T19:15:47.758Z,2.58
2022-08-19T19:18:14.610Z,2.95
2022-08-19T19:20:41.620Z,2.50
2022-08-19T19:23:08.909Z,2.50
2022-08-19T19:25:50.589Z,2.58
2022-08-19T19:28:23.930Z,2.83
2022-08-19T19:30:53.158Z,2.47
2022-08-19T19:33:20.355Z,2.60
2022-08-19T19:35:47.388Z,2.40
2022-08-19T19:38:14.596Z,2.45
2022-08-19T19:40:41.731Z,2.20
2022-08-19T19:43:08.760Z,2.33
2022-08-19T19:45:36.969Z,2.80
2022-08-19T19:48:05.405Z,2.20
2022-08-19T19:50:32.477Z,2.75
2022-08-19T19:52:59.465Z,2.42
2022-08-19T19:55:28.230Z,2.90
2022-08-19T19:57:55.328Z,3.08
2022-08-19T20:00:22.612Z,3.03
2022-08-19T20:02:50.859Z,2.38
2022-08-19T20:05:20.865Z,2.67
2022-08-19T20:08:07.230Z,2.40
2022-08-19T20:10:34.549Z,3.10
2022-08-19T20:13:02.805Z,2.60
2022-08-19T20:15:31.533Z,2.80
2022-08-19T20:18:00.131Z,2.92
2022-08-19T20:20:27.317Z,2.97
2022-08-19T20:22:54.376Z,3.03
2022-08-19T20:25:23.643Z,2.33
2022-08-19T20:27:50.773Z,2.83
2022-08-19T20:30:20.196Z,2.80
2022-08-19T20:32:48.295Z,2.60
2022-08-19T20:35:17.292Z,2.60
2022-08-19T20:37:44.409Z,2.50
2022-08-19T20:40:13.426Z,2.88
2022-08-19T20:42:42.976Z,2.67
2022-08-19T20:45:25.373Z,2.35
2022-08-19T20:47:59.524Z,2.08
2022-08-19T20:50:26.494Z,2.65
2022-08-19T20:52:57.670Z,2.53
2022-08-19T20:55:26.413Z,2.33
2022-08-19T20:57:53.884Z,2.35
2022-08-19T21:00:20.957Z,2.28
2022-08-19T21:02:47.968Z,2.53
2022-08-19T21:05:15.293Z,2.65
2022-08-19T21:07:42.320Z,2.72
2022-08-19T21:10:09.378Z,2.22
2022-08-19T21:12:36.539Z,2.47
2022-08-19T21:15:04.200Z,2.40
2022-08-19T21:17:31.483Z,2.15
2022-08-19T21:19:58.422Z,2.30
2022-08-19T21:22:25.415Z,2.00
2022-08-19T21:24:52.310Z,2.17
2022-08-19T21:27:19.274Z,2.47
2022-08-19T21:29:46.138Z,1.90
2022-08-19T21:32:14.545Z,1.85
2022-08-19T21:34:43.710Z,2.33
2022-08-19T21:37:25.186Z,2.20
2022-08-19T21:39:53.732Z,2.35
2022-08-19T21:42:21.544Z,1.85
2022-08-19T21:44:48.941Z,1.80
2022-08-19T21:47:15.907Z,1.98
2022-08-19T21:49:43.034Z,1.80
2022-08-19T21:52:09.950Z,1.90
2022-08-19T21:54:37.710Z,2.08
2022-08-19T21:57:10.225Z,1.80
2022-08-19T21:59:41.117Z,2.03
2022-08-19T22:02:20.131Z,1.80
2022-08-19T22:04:48.091Z,2.85
2022-08-19T22:07:15.084Z,1.88
2022-08-19T22:09:46.637Z,1.58
2022-08-19T22:12:34.407Z,2.08
2022-08-19T22:15:01.995Z,1.55
2022-08-19T22:17:29.925Z,1.60
2022-08-19T22:19:57.459Z,1.65
2022-08-19T22:22:30.698Z,1.60
2022-08-19T22:25:29.101Z,1.98
2022-08-19T22:28:01.752Z,1.60
2022-08-19T22:30:33.157Z,2.08
2022-08-19T22:33:04.124Z,1.55
2022-08-19T22:35:32.929Z,2.05
2022-08-19T22:38:00.766Z,1.65
2022-08-19T22:40:29.671Z,1.80
2022-08-19T22:43:06.118Z,1.63
2022-08-19T22:45:33.695Z,1.42
2022-08-19T22:48:00.648Z,1.85
2022-08-19T22:50:27.673Z,1.58
2022-08-19T22:52:58.730Z,1.65
2022-08-19T22:55:26.670Z,1.50
2022-08-19T22:57:54.072Z,1.60
2022-08-19T23:00:22.839Z,1.92
2022-08-19T23:02:52.062Z,1.65
2022-08-19T23:05:22.165Z,1.63
2022-08-19T23:07:52.331Z,1.98
2022-08-19T23:10:26.701Z,1.90
2022-08-19T23:12:57.747Z,1.60
2022-08-19T23:15:27.865Z,1.95
2022-08-19T23:17:58.044Z,1.63
2022-08-19T23:20:27.452Z,1.83
2022-08-19T23:22:55.556Z,1.90
2022-08-19T23:25:28.634Z,1.55
2022-08-19T23:28:14.594Z,1.63
2022-08-19T23:30:44.589Z,1.63
2022-08-19T23:33:24.946Z,1.55
2022-08-19T23:35:57.881Z,1.73
2022-08-19T23:38:25.987Z,1.40
2022-08-19T23:40:58.306Z,1.60
2022-08-19T23:43:29.670Z,1.40
2022-08-19T23:46:01.761Z,1.40
2022-08-19T23:48:36.240Z,1.60
2022-08-19T23:51:05.680Z,1.80
2022-08-19T23:53:33.032Z,1.73
2022-08-19T23:56:00.193Z,1.75
2022-08-19T23:58:30.059Z,2.00
